Terminal Aerodrome Forecast
Issued by NWS

Home | Current Version | Previous Version | Text Only | Print | Product List | Glossary On
Versions: 1 2 3 4 5 6 7 8 9 10 11 12 13 14 15 16 17 18 19 20 21 22 23 24 25 26 27 28 29 30 31 32 33 34 35 36 37 38
754
FTUS43 KDTX 041123
TAFYIP
TAF
KYIP 041123Z 0412/0512 24005KT P6SM OVC035
      TEMPO 0412/0415 SCT035 OVC150
     FM041500 16005KT P6SM BKN040 OVC080
     FM042200 12008KT P6SM BKN045 OVC060
     FM050000 14005KT 1 1/2SM -SN BR BKN008 OVC028
     FM050600 24006KT 5SM BR BKN010 OVC040
     FM051000 26007KT P6SM OVC015=

USA.gov is the U.S. government's official web portal to all federal, state and local government web resources and services.